McChord Air Force Base
KTCM : now visible

Airfield :











YOU CAN JOIN US ON...

 
LOGIN :

Register | Disclaimer

   EN    FR    IT 

 









Legend :    VFR   Marginal VFR   IFR   Intensive IFR   Very Intensive IFR
Visi :
Ceiling :
>= 8 km
>= 3000ft
5 to 8 km
1000 to 3000 ft
1500m to 5 km
500 to 1000 ft
800 to 1500m
200 to 500 ft
< 800m
< 200 ft
Symbols :   Thunderstorms  Fog  Heavy snow  Heavy precipitations  Wind > 20 kt






- Airport Elevation : 322 ft


KTCM - McChord Air Force Base

CURRENT METAR :
  • 130358Z AUTO 30004KT 10SM SCT070 19/07 A3009 RMK AO2 SLP193 T01850070 $

EXPIRED METARs :
  • 130258Z AUTO 31005KT 10SM CLR 20/05 A3007 RMK AO2 SLP186 T01970050 $
  • 130158Z AUTO 36004KT 10SM CLR 21/04 A3006 RMK AO2 SLP182 T02090040 $

TAF TAF KTCM
Valid from the 12 at 21:00 until the 14 at 03:00 UTC


122100Z 1221/1403 24006KT 9999 BKN035 QNH3006INS
BECMG 1300/1301 27007KT 9999 FEW080 QNH3007INS
BECMG 1306/1307 18003KT 9999 BKN030 QNH3011INS
BECMG 1317/1318 30005KT 9999 BKN025 QNH3014INS
BECMG 1320/1321 33006KT 9999 SKC QNH3012INS TX22/1223Z TN09/1311Z
KZSE FIR / North America



MET'MAP, your aeronautical weather chart ! - Copyright ORBIFLY December 2007 - Disclaimer

ORBIFLY MET'MAP TEAM :

Programming & Development : Alexandra Zaïnal
Concept & original design : Baudouin d'Aumeries
Assistance for programming : Marc-Olivier Méhu
Technical & hardware support : Manuel Goepfert

Contact : metmap@orbifly.com




SOURCES & CREDITS :

   NOAA       Earth
Advisory